Time;durP1;ratioP1;P1;durP2;ratioP2;P2;SDS_P1;SDS_P2;PMS_P1;PMS_P2;Temp;Humidity;BMP_temperature;BMP_pressure;BME280_temperature;BME280_humidity;BME280_pressure;Samples;Min_cycle;Max_cycle;Signal;HPM_P1;HPM_P2
2024/01/14 00:01:18;;;;;;;;;58.25;44.75;;;;;2.09;62.12;101577.16;5071251;28;44904;-78
2024/01/14 00:03:43;;;;;;;;;57.75;42.75;;;;;1.95;62.92;101550.72;5072863;28;45186;-79
2024/01/14 00:06:09;;;;;;;;;59.00;45.00;;;;;2.02;63.18;101565.25;5053902;28;44962;-80
2024/01/14 00:08:35;;;;;;;;;51.00;41.00;;;;;1.64;63.20;101503.22;5054643;28;45097;-79
2024/01/14 00:11:00;;;;;;;;;44.75;37.50;;;;;1.80;63.21;101509.44;5072114;28;45029;-79
2024/01/14 00:13:26;;;;;;;;;53.00;42.50;;;;;2.01;63.17;101539.97;5073747;28;45721;-80
2024/01/14 00:15:51;;;;;;;;;55.75;42.00;;;;;2.13;63.35;101560.38;5072295;28;45157;-79
2024/01/14 00:18:16;;;;;;;;;50.75;41.50;;;;;2.04;63.17;101531.09;5069074;28;45550;-80
2024/01/14 00:20:42;;;;;;;;;59.75;46.00;;;;;1.42;62.61;101407.22;5084500;28;46515;-78
2024/01/14 00:23:10;;;;;;;;;60.50;45.75;;;;;1.80;62.94;101452.66;5074693;28;45516;-78
2024/01/14 00:25:36;;;;;;;;;51.50;41.50;;;;;1.76;62.96;101434.47;5075200;28;45001;-78
2024/01/14 00:28:02;;;;;;;;;46.75;34.50;;;;;2.33;62.62;101530.59;5074078;28;45036;-79
2024/01/14 00:30:27;;;;;;;;;46.25;41.00;;;;;2.21;63.03;101528.56;5074843;28;45198;-79
2024/01/14 00:32:53;;;;;;;;;57.25;44.00;;;;;2.09;63.68;101521.25;5056110;28;47494;-79
2024/01/14 00:35:18;;;;;;;;;55.75;42.50;;;;;2.05;63.79;101525.78;5074431;28;45090;-79
2024/01/14 00:37:43;;;;;;;;;42.50;32.25;;;;;1.97;63.74;101506.91;5074923;28;45891;-79
2024/01/14 00:40:10;;;;;;;;;48.75;42.75;;;;;1.55;63.93;101448.56;5070501;28;45092;-78
2024/01/14 00:42:36;;;;;;;;;56.75;44.50;;;;;1.13;64.85;101398.03;5070248;28;45652;-78
2024/01/14 00:45:01;;;;;;;;;60.25;45.75;;;;;1.69;64.54;101506.47;5073421;28;45052;-79
2024/01/14 00:47:30;;;;;;;;;51.50;40.75;;;;;1.71;64.43;101504.63;5072685;28;44930;-78
2024/01/14 00:49:55;;;;;;;;;52.00;37.25;;;;;1.45;64.54;101459.47;5072530;28;44919;-76
2024/01/14 00:52:21;;;;;;;;;52.75;42.50;;;;;1.81;64.69;101480.56;5073202;28;45654;-77
2024/01/14 00:54:46;;;;;;;;;57.00;41.25;;;;;1.63;64.21;101454.31;5073842;28;45179;-78
2024/01/14 00:57:12;;;;;;;;;41.00;36.00;;;;;1.63;64.71;101438.59;5072984;28;44982;-78
2024/01/14 00:59:37;;;;;;;;;51.25;38.75;;;;;1.55;64.75;101428.44;5073507;28;45201;-76
2024/01/14 01:02:03;;;;;;;;;49.00;39.33;;;;;1.74;64.54;101467.78;5072295;28;45589;-79
2024/01/14 01:04:28;;;;;;;;;40.33;36.00;;;;;1.62;64.09;101429.91;5071880;28;45279;-79
2024/01/14 01:06:53;;;;;;;;;45.00;40.00;;;;;1.62;63.63;101414.16;5069665;28;45409;-78
2024/01/14 01:09:19;;;;;;;;;48.67;40.67;;;;;1.84;63.68;101440.25;5071253;28;45581;-79
2024/01/14 01:11:44;;;;;;;;;44.00;35.33;;;;;1.90;64.36;101457.44;5067224;28;45807;-79
2024/01/14 01:14:09;;;;;;;;;56.50;42.75;;;;;1.87;63.67;101465.47;5070751;28;45416;-78
2024/01/14 01:16:35;;;;;;;;;45.00;38.25;;;;;1.79;64.20;101447.44;5075006;28;45703;-77
2024/01/14 01:19:00;;;;;;;;;51.00;38.25;;;;;1.82;63.26;101455.19;5075433;28;45111;-77
2024/01/14 01:21:25;;;;;;;;;43.00;38.25;;;;;1.94;63.84;101475.59;5072357;28;45021;-78
2024/01/14 01:23:51;;;;;;;;;45.67;39.00;;;;;1.61;63.92;101419.47;5072422;28;44991;-78
2024/01/14 01:26:16;;;;;;;;;36.67;32.33;;;;;1.31;64.06;101364.06;5054566;28;45763;-77
2024/01/14 01:28:42;;;;;;;;;40.67;37.33;;;;;2.02;63.41;101470.00;5073173;28;44918;-80
2024/01/14 01:31:07;;;;;;;;;39.00;32.00;;;;;1.99;62.82;101443.88;5072434;28;45931;-79
2024/01/14 01:33:32;;;;;;;;;41.67;32.67;;;;;2.08;62.70;101431.22;5054834;28;45069;-77
2024/01/14 01:35:58;;;;;;;;;42.33;33.00;;;;;2.37;62.08;101469.16;5054964;28;45026;-78
2024/01/14 01:38:26;;;;;;;;;43.67;34.00;;;;;2.42;61.75;101466.34;5073149;28;45122;-78
2024/01/14 01:40:52;;;;;;;;;36.67;30.67;;;;;2.41;62.53;101470.72;5070582;28;45846;-77
2024/01/14 01:43:17;;;;;;;;;34.25;31.00;;;;;2.41;62.33;101469.88;5072618;28;45040;-78
2024/01/14 01:45:43;;;;;;;;;55.00;39.00;;;;;2.33;61.77;101441.38;5072536;28;45251;-78
2024/01/14 01:48:08;;;;;;;;;41.33;35.33;;;;;1.62;61.73;101321.59;5072013;28;45085;-77
2024/01/14 01:50:35;;;;;;;;;43.33;36.00;;;;;2.09;61.62;101400.59;5072431;28;45748;-77
2024/01/14 01:53:01;;;;;;;;;47.00;36.67;;;;;2.30;61.68;101456.41;5054412;28;45049;-76
2024/01/14 01:55:27;;;;;;;;;43.00;36.67;;;;;1.88;61.62;101405.09;5072569;28;44908;-79
2024/01/14 01:57:54;;;;;;;;;34.33;31.00;;;;;2.16;62.42;101453.59;5072730;28;45045;-77
2024/01/14 02:00:24;;;;;;;;;38.67;35.33;;;;;2.01;62.74;101411.47;5051285;28;46701;-78
2024/01/14 02:02:50;;;;;;;;;32.67;28.67;;;;;1.99;62.11;101405.41;5053389;28;45193;-78
2024/01/14 02:05:18;;;;;;;;;38.33;30.00;;;;;2.03;62.32;101417.47;5073852;28;44932;-79
2024/01/14 02:07:44;;;;;;;;;33.00;31.00;;;;;2.14;61.96;101438.78;5074801;28;45070;-78
2024/01/14 02:10:10;;;;;;;;;47.00;36.00;;;;;2.13;61.78;101434.47;5072361;28;45912;-77
2024/01/14 02:12:35;;;;;;;;;37.33;34.67;;;;;1.77;61.85;101362.78;5072338;28;45018;-75
2024/01/14 02:15:01;;;;;;;;;37.33;33.33;;;;;2.20;61.89;101439.41;5072299;28;45115;-76
2024/01/14 02:17:26;;;;;;;;;39.33;31.33;;;;;2.20;61.94;101434.16;5072517;28;45251;-78
2024/01/14 02:19:52;;;;;;;;;33.00;26.00;;;;;1.89;61.01;101370.06;5074039;28;45913;-76
2024/01/14 02:22:25;;;;;;;;;38.00;31.00;;;;;2.03;62.20;101391.25;5073442;28;44945;-77
2024/01/14 02:24:53;;;;;;;;;37.33;28.00;;;;;2.20;61.54;101414.00;5073269;28;44917;-76
2024/01/14 02:27:19;;;;;;;;;37.33;30.67;;;;;1.85;61.11;101341.47;5073375;28;45123;-77
2024/01/14 02:29:44;;;;;;;;;33.67;27.33;;;;;2.25;61.04;101411.19;5072201;28;45242;-79
2024/01/14 02:32:10;;;;;;;;;39.67;31.33;;;;;1.83;61.04;101341.53;5055321;28;45517;-77
2024/01/14 02:34:35;;;;;;;;;44.00;32.33;;;;;2.17;61.18;101389.72;5072569;28;45462;-77
2024/01/14 02:37:02;;;;;;;;;30.00;24.67;;;;;1.93;61.52;101358.50;5072978;28;44996;-78
2024/01/14 02:39:28;;;;;;;;;31.67;27.33;;;;;1.78;60.55;101312.03;5076412;28;45726;-78
2024/01/14 02:41:53;;;;;;;;;30.33;30.00;;;;;2.14;60.44;101373.19;5075363;28;45091;-78
2024/01/14 02:44:18;;;;;;;;;30.00;27.67;;;;;2.37;60.90;101395.69;5057237;28;45819;-77
2024/01/14 02:46:44;;;;;;;;;39.00;30.33;;;;;2.36;60.32;101393.97;5057863;28;45161;-77
2024/01/14 02:49:09;;;;;;;;;41.67;29.67;;;;;2.42;60.72;101380.59;5075577;28;45234;-77
2024/01/14 02:51:35;;;;;;;;;40.67;32.33;;;;;2.32;60.87;101357.47;5076138;28;44878;-78
2024/01/14 02:54:02;;;;;;;;;35.67;30.00;;;;;2.32;60.34;101349.63;5076151;28;45174;-78
2024/01/14 02:56:27;;;;;;;;;36.00;33.00;;;;;2.30;60.53;101340.97;5078465;28;45044;-79
2024/01/14 02:58:53;;;;;;;;;31.00;27.67;;;;;2.22;60.55;101333.50;5070885;28;45207;-78
2024/01/14 03:01:18;;;;;;;;;35.67;31.67;;;;;2.37;60.32;101364.19;5052696;28;45148;-76
2024/01/14 03:03:44;;;;;;;;;33.00;33.00;;;;;2.30;60.85;101356.72;5074731;28;45179;-78
2024/01/14 03:06:09;;;;;;;;;37.67;31.33;;;;;2.29;60.89;101360.25;5075652;28;44892;-76
2024/01/14 03:08:35;;;;;;;;;33.33;29.67;;;;;2.34;60.45;101368.75;5074368;28;45637;-79
2024/01/14 03:11:00;;;;;;;;;31.00;29.33;;;;;2.16;60.32;101332.94;5075468;28;45016;-77
2024/01/14 03:13:26;;;;;;;;;47.67;35.00;;;;;2.37;60.75;101363.34;5056805;28;45316;-77
2024/01/14 03:15:52;;;;;;;;;40.00;35.67;;;;;2.42;60.68;101364.00;5075185;28;45132;-77
2024/01/14 03:18:17;;;;;;;;;34.67;24.67;;;;;2.33;60.53;101335.56;5074827;28;45194;-77
2024/01/14 03:20:43;;;;;;;;;34.67;29.33;;;;;2.34;60.51;101337.25;5074662;28;45068;-77
2024/01/14 03:23:08;;;;;;;;;41.33;33.00;;;;;2.50;60.52;101359.19;5074952;28;45088;-77
2024/01/14 03:25:34;;;;;;;;;35.33;27.00;;;;;2.29;60.40;101318.28;5056639;28;45156;-77
2024/01/14 03:27:59;;;;;;;;;35.67;31.33;;;;;2.50;60.59;101355.72;5073865;28;45163;-77
2024/01/14 03:30:25;;;;;;;;;31.00;30.33;;;;;2.28;59.98;101325.31;5068157;28;45219;-78
2024/01/14 03:32:50;;;;;;;;;38.33;30.67;;;;;2.33;60.28;101336.41;5073172;28;44970;-77
2024/01/14 03:35:16;;;;;;;;;33.00;28.67;;;;;2.38;60.74;101358.00;5073820;28;45044;-77
2024/01/14 03:37:41;;;;;;;;;36.00;31.67;;;;;2.38;60.78;101365.88;5073230;28;45341;-78
2024/01/14 03:40:07;;;;;;;;;33.67;29.33;;;;;2.33;60.45;101352.16;5073888;28;45125;-76
2024/01/14 03:42:32;;;;;;;;;39.33;35.67;;;;;2.39;60.48;101351.00;5073685;28;44946;-78
2024/01/14 03:44:58;;;;;;;;;47.00;38.00;;;;;2.41;60.12;101346.53;5077940;28;45011;-76
2024/01/14 03:47:23;;;;;;;;;40.33;34.33;;;;;2.40;60.50;101331.69;5060455;28;46228;-77
2024/01/14 03:49:48;;;;;;;;;37.67;32.33;;;;;2.35;60.49;101312.72;5078298;28;45228;-77
2024/01/14 03:52:14;;;;;;;;;45.33;37.33;;;;;2.48;60.50;101339.19;5078553;28;45252;-77
2024/01/14 03:54:39;;;;;;;;;39.67;36.67;;;;;2.45;60.33;101316.59;5076209;28;45469;-79
2024/01/14 03:57:05;;;;;;;;;37.33;29.00;;;;;2.39;60.07;101294.13;5074240;28;45406;-77
2024/01/14 03:59:30;;;;;;;;;44.00;37.33;;;;;2.01;60.25;101224.41;5074336;28;45401;-77
2024/01/14 04:01:56;;;;;;;;;43.67;35.67;;;;;2.48;59.32;101298.06;5072123;28;45377;-77
2024/01/14 04:04:21;;;;;;;;;38.67;31.67;;;;;1.92;60.39;101199.50;5072971;28;45366;-78
2024/01/14 04:06:47;;;;;;;;;40.33;35.33;;;;;2.60;60.16;101305.31;5074516;28;45448;-77
2024/01/14 04:09:12;;;;;;;;;38.00;32.67;;;;;2.46;60.16;101288.56;5069175;28;45292;-78
2024/01/14 04:11:37;;;;;;;;;40.33;35.00;;;;;2.21;59.63;101254.88;5072211;28;45086;-77
2024/01/14 04:14:03;;;;;;;;;40.00;32.67;;;;;2.41;59.99;101291.44;5072537;28;45002;-78
2024/01/14 04:16:38;;;;;;;;;46.00;33.67;;;;;2.43;60.17;101289.59;5072360;28;45927;-77
2024/01/14 04:19:04;;;;;;;;;39.67;26.00;;;;;2.20;60.54;101250.53;5051706;28;45053;-77
2024/01/14 04:21:30;;;;;;;;;40.67;33.67;;;;;2.40;60.00;101281.84;5052199;28;45059;-78
2024/01/14 04:23:55;;;;;;;;;46.33;34.67;;;;;2.40;60.08;101273.97;5052081;28;45104;-76
2024/01/14 04:26:21;;;;;;;;;42.33;34.67;;;;;2.25;60.56;101256.41;5034259;28;46615;-77
2024/01/14 04:28:47;;;;;;;;;54.33;41.67;;;;;2.35;60.30;101270.75;5060596;28;45201;-77
2024/01/14 04:31:13;;;;;;;;;34.00;31.67;;;;;2.47;60.63;101280.63;5072513;28;45032;-76
2024/01/14 04:33:38;;;;;;;;;39.67;31.00;;;;;2.52;59.83;101270.72;5072147;28;45147;-78
2024/01/14 04:36:04;;;;;;;;;45.00;38.00;;;;;2.50;60.29;101275.22;5076132;28;45570;-77
2024/01/14 04:38:29;;;;;;;;;44.33;39.67;;;;;2.52;60.45;101281.22;5057762;28;44921;-78
2024/01/14 04:40:55;;;;;;;;;40.67;37.33;;;;;2.18;59.87;101226.16;5072843;28;45303;-76
2024/01/14 04:43:20;;;;;;;;;33.67;31.33;;;;;1.88;59.83;101182.22;5073915;28;45150;-78
2024/01/14 04:45:46;;;;;;;;;35.00;32.00;;;;;2.30;60.00;101238.66;5074644;28;45451;-77
2024/01/14 04:48:11;;;;;;;;;38.00;36.33;;;;;2.34;60.35;101264.66;5073578;28;44936;-76
2024/01/14 04:50:39;;;;;;;;;43.33;36.33;;;;;2.30;59.85;101257.88;5074764;28;45109;-77
2024/01/14 04:53:05;;;;;;;;;48.67;40.33;;;;;2.30;60.64;101270.97;5074939;28;44951;-78
2024/01/14 04:55:30;;;;;;;;;50.33;40.00;;;;;1.67;60.40;101172.81;5074182;28;45351;-76
2024/01/14 04:57:55;;;;;;;;;40.00;33.00;;;;;2.26;60.49;101265.97;5054991;28;45238;-78
2024/01/14 05:00:21;;;;;;;;;46.00;37.33;;;;;2.18;60.82;101244.50;5070361;28;44911;-76
2024/01/14 05:02:47;;;;;;;;;35.00;31.00;;;;;2.27;60.27;101262.44;5074631;28;45189;-78
2024/01/14 05:05:13;;;;;;;;;45.00;36.67;;;;;2.30;59.93;101254.41;5073837;28;45151;-78
2024/01/14 05:07:39;;;;;;;;;40.00;30.33;;;;;2.40;60.05;101266.09;5072230;28;45040;-79
2024/01/14 05:10:05;;;;;;;;;35.00;31.67;;;;;2.34;59.43;101248.06;5068619;28;45311;-79
2024/01/14 05:12:30;;;;;;;;;45.00;36.67;;;;;2.38;60.13;101253.06;5071375;28;45151;-78
2024/01/14 05:14:58;;;;;;;;;43.33;38.00;;;;;2.43;60.05;101258.09;5070667;28;46014;-77
2024/01/14 05:17:24;;;;;;;;;36.67;28.67;;;;;1.96;60.16;101182.66;5071095;28;45242;-78
2024/01/14 05:19:51;;;;;;;;;34.00;32.33;;;;;2.36;59.64;101246.19;5071936;28;45050;-78
2024/01/14 05:22:17;;;;;;;;;33.33;32.33;;;;;2.37;60.38;101253.13;5071237;28;44928;-77
2024/01/14 05:24:43;;;;;;;;;45.00;38.67;;;;;2.38;59.91;101260.09;5055055;28;47055;-78
2024/01/14 05:27:10;;;;;;;;;45.33;35.33;;;;;2.33;60.10;101238.50;5072853;28;45143;-79
2024/01/14 05:29:42;;;;;;;;;43.67;34.00;;;;;2.38;59.92;101244.34;5059249;28;45022;-78
2024/01/14 05:32:10;;;;;;;;;50.33;39.67;;;;;2.32;60.02;101224.53;5053393;28;44923;-77
2024/01/14 05:34:35;;;;;;;;;43.67;40.00;;;;;2.27;59.97;101212.56;5052648;28;45167;-77
2024/01/14 05:37:01;;;;;;;;;47.75;36.50;;;;;2.52;59.31;101248.88;5049744;28;45231;-76
2024/01/14 05:39:27;;;;;;;;;46.00;35.67;;;;;2.10;59.85;101172.31;5051129;28;45105;-76
2024/01/14 05:41:53;;;;;;;;;45.00;36.33;;;;;2.28;59.59;101195.91;5033346;28;44951;-77
2024/01/14 05:44:18;;;;;;;;;51.67;39.33;;;;;2.50;59.67;101222.72;5049568;28;44914;-78
2024/01/14 05:46:43;;;;;;;;;42.33;38.00;;;;;2.62;59.53;101237.84;5050513;28;45193;-77
2024/01/14 05:49:10;;;;;;;;;39.00;35.00;;;;;2.40;59.56;101206.63;5050388;28;45168;-78
2024/01/14 05:51:36;;;;;;;;;48.00;35.33;;;;;2.66;58.85;101241.97;5048995;28;45179;-79
2024/01/14 05:54:01;;;;;;;;;46.67;40.33;;;;;2.67;59.57;101240.22;5049122;28;45661;-76
2024/01/14 05:56:27;;;;;;;;;44.00;36.33;;;;;2.60;59.30;101223.94;5049472;28;44871;-78
2024/01/14 05:58:53;;;;;;;;;54.50;42.75;;;;;2.66;58.57;101243.75;5058238;28;45199;-76
2024/01/14 06:01:19;;;;;;;;;46.33;37.33;;;;;2.20;58.99;101175.31;5070914;28;45206;-77
2024/01/14 06:03:44;;;;;;;;;46.67;38.67;;;;;2.67;58.98;101250.72;5070893;28;45646;-76
2024/01/14 06:06:12;;;;;;;;;52.75;40.25;;;;;2.22;58.83;101181.34;5070515;28;45678;-78
2024/01/14 06:08:37;;;;;;;;;47.00;40.00;;;;;2.49;59.25;101242.03;5072550;28;45123;-77
2024/01/14 06:11:04;;;;;;;;;53.00;41.00;;;;;2.43;60.04;101237.09;5071016;28;45233;-77
2024/01/14 06:13:32;;;;;;;;;48.00;40.00;;;;;2.13;60.35;101219.38;5072050;28;45263;-80
2024/01/14 06:15:58;;;;;;;;;54.25;42.00;;;;;2.08;60.11;101199.56;5073591;28;44867;-77
2024/01/14 06:18:23;;;;;;;;;48.00;35.67;;;;;1.66;60.02;101118.72;5054202;28;44730;-79
2024/01/14 06:20:49;;;;;;;;;50.00;42.00;;;;;2.20;60.50;101229.53;5072269;28;45111;-78
2024/01/14 06:23:15;;;;;;;;;52.67;40.00;;;;;2.09;60.22;101236.19;5073219;28;45195;-78
2024/01/14 06:25:40;;;;;;;;;49.00;38.33;;;;;2.06;60.30;101231.13;5072003;28;45167;-79
2024/01/14 06:28:09;;;;;;;;;56.25;40.25;;;;;1.97;60.58;101235.97;5071856;28;45115;-78
2024/01/14 06:30:34;;;;;;;;;46.67;40.33;;;;;1.68;60.63;101174.50;5071804;28;45005;-79
2024/01/14 06:33:00;;;;;;;;;39.25;36.50;;;;;1.89;60.40;101194.41;5072472;28;45501;-78
2024/01/14 06:35:25;;;;;;;;;40.33;33.67;;;;;2.22;60.61;101232.97;5054806;28;45041;-77
2024/01/14 06:37:51;;;;;;;;;47.00;39.00;;;;;2.26;60.38;101242.38;5070817;28;44921;-77
2024/01/14 06:40:17;;;;;;;;;50.00;37.67;;;;;2.27;60.07;101241.44;5072585;28;45050;-78
2024/01/14 06:42:42;;;;;;;;;48.00;41.00;;;;;2.20;60.36;101234.78;5054551;28;46350;-77
2024/01/14 06:45:08;;;;;;;;;40.00;37.00;;;;;2.01;60.32;101217.41;5073974;28;45117;-76
2024/01/14 06:47:34;;;;;;;;;42.00;36.33;;;;;1.12;61.08;101095.19;5054583;28;44703;-76
2024/01/14 06:50:00;;;;;;;;;46.00;36.50;;;;;1.59;61.57;101201.16;5071227;28;45345;-79
2024/01/14 06:52:25;;;;;;;;;36.33;34.00;;;;;1.80;61.31;101232.44;5052330;28;46169;-78
2024/01/14 06:54:51;;;;;;;;;42.33;35.00;;;;;1.67;61.38;101193.78;5071363;28;45140;-77
2024/01/14 06:57:17;;;;;;;;;39.33;36.00;;;;;1.70;61.34;101201.50;5069544;28;45310;-77
2024/01/14 06:59:43;;;;;;;;;51.00;38.00;;;;;1.68;61.49;101206.81;5054027;28;45132;-77
2024/01/14 07:02:08;;;;;;;;;37.33;34.67;;;;;1.60;61.69;101198.47;5071291;28;46330;-78
2024/01/14 07:04:34;;;;;;;;;42.75;36.75;;;;;1.77;61.22;101226.47;5075319;28;45284;-77
2024/01/14 07:06:59;;;;;;;;;47.67;38.67;;;;;1.48;61.93;101215.66;5075197;28;45592;-77
2024/01/14 07:09:25;;;;;;;;;41.25;31.00;;;;;1.56;61.86;101232.75;5075448;28;45490;-79
2024/01/14 07:11:50;;;;;;;;;52.33;36.67;;;;;1.62;62.12;101222.00;5054095;28;46708;-78
2024/01/14 07:14:16;;;;;;;;;49.75;40.75;;;;;1.31;61.97;101170.25;5073292;28;45346;-77
2024/01/14 07:16:41;;;;;;;;;41.67;34.67;;;;;0.93;62.03;101109.25;5072496;28;44939;-78
2024/01/14 07:19:06;;;;;;;;;46.33;39.00;;;;;1.65;61.72;101222.69;5072650;28;44861;-77
2024/01/14 07:21:32;;;;;;;;;37.25;34.00;;;;;1.48;61.66;101189.44;5054521;28;47122;-77
2024/01/14 07:23:58;;;;;;;;;46.33;38.33;;;;;1.61;61.91;101220.31;5073089;28;45061;-79
2024/01/14 07:26:24;;;;;;;;;56.50;41.75;;;;;1.59;61.99;101216.88;5069483;28;44970;-76
2024/01/14 07:28:51;;;;;;;;;48.33;38.67;;;;;1.28;62.09;101166.00;5075415;28;44985;-78
2024/01/14 07:31:23;;;;;;;;;44.00;36.75;;;;;1.37;61.60;101181.25;5075171;28;45509;-78
2024/01/14 07:33:50;;;;;;;;;38.75;35.50;;;;;1.65;61.92;101220.06;5074335;28;45002;-77
2024/01/14 07:36:16;;;;;;;;;43.33;36.67;;;;;1.41;61.82;101161.88;5076371;28;45034;-78
2024/01/14 07:38:41;;;;;;;;;41.67;35.33;;;;;1.68;61.65;101225.16;5075248;28;45182;-78
2024/01/14 07:41:09;;;;;;;;;51.25;39.25;;;;;1.09;61.56;101121.53;5075245;28;45364;-76
2024/01/14 07:43:35;;;;;;;;;39.25;35.25;;;;;1.65;62.21;101214.00;5075901;28;45005;-78
2024/01/14 07:46:00;;;;;;;;;51.50;36.75;;;;;0.21;61.89;100981.88;5075945;28;45127;-77
2024/01/14 07:48:26;;;;;;;;;47.50;39.75;;;;;1.41;62.30;101177.59;5075352;28;44952;-77
2024/01/14 07:50:54;;;;;;;;;43.67;38.33;;;;;1.65;61.73;101212.22;5075142;28;45539;-78
2024/01/14 07:53:20;;;;;;;;;42.00;37.67;;;;;1.73;61.60;101214.44;5075320;28;44952;-77
2024/01/14 07:55:45;;;;;;;;;50.25;41.50;;;;;1.55;61.47;101184.75;5072876;28;45432;-79
2024/01/14 07:58:11;;;;;;;;;35.33;31.33;;;;;1.50;61.72;101187.59;5075475;28;44981;-77
2024/01/14 08:00:38;;;;;;;;;49.25;39.75;;;;;1.45;61.67;101179.13;5056043;28;46852;-78
2024/01/14 08:03:03;;;;;;;;;26.67;25.00;;;;;1.77;61.36;101223.84;5073869;28;45084;-78
2024/01/14 08:05:29;;;;;;;;;44.00;38.33;;;;;1.56;61.32;101191.69;5053054;28;45118;-79
2024/01/14 08:07:55;;;;;;;;;34.67;31.00;;;;;1.69;61.71;101221.63;5072990;28;45672;-77
2024/01/14 08:10:21;;;;;;;;;46.33;35.00;;;;;1.67;61.59;101225.25;5073008;28;45085;-78
2024/01/14 08:12:46;;;;;;;;;39.50;37.50;;;;;1.67;61.49;101225.25;5072118;28;45000;-78
2024/01/14 08:15:12;;;;;;;;;47.50;38.00;;;;;1.28;61.87;101171.25;5040560;28;45286;-75
2024/01/14 08:17:37;;;;;;;;;50.50;39.75;;;;;1.69;61.67;101231.25;5056913;28;45308;-78
2024/01/14 08:20:05;;;;;;;;;49.00;38.00;;;;;1.68;61.82;101232.19;5049042;28;46160;-77
2024/01/14 08:22:30;;;;;;;;;42.67;34.33;;;;;1.72;61.64;101229.31;5036492;28;45329;-77
2024/01/14 08:24:56;;;;;;;;;52.50;37.75;;;;;1.30;61.55;101153.66;5036597;28;45438;-76
2024/01/14 08:27:21;;;;;;;;;37.00;31.00;;;;;1.72;61.52;101229.31;5019166;28;45372;-77
2024/01/14 08:29:47;;;;;;;;;51.33;37.67;;;;;1.58;61.95;101217.81;5018496;28;47389;-78
2024/01/14 08:32:12;;;;;;;;;41.00;36.33;;;;;1.23;61.72;101160.13;5037365;28;45758;-78
2024/01/14 08:34:37;;;;;;;;;42.00;36.75;;;;;1.61;61.87;101236.03;5039632;28;45406;-77
2024/01/14 08:37:03;;;;;;;;;43.00;37.25;;;;;1.01;61.99;101120.22;5053474;28;45322;-78
2024/01/14 08:39:29;;;;;;;;;41.75;38.00;;;;;1.50;62.22;101195.47;5056263;28;45552;-76
2024/01/14 08:41:54;;;;;;;;;46.50;37.25;;;;;1.32;62.60;101157.06;5058419;28;45501;-79
2024/01/14 08:44:20;;;;;;;;;40.75;35.25;;;;;1.85;61.83;101223.47;5058689;28;45413;-79
2024/01/14 08:46:47;;;;;;;;;51.00;38.00;;;;;1.62;61.57;101180.06;5061691;28;45497;-77
2024/01/14 08:49:14;;;;;;;;;44.50;36.75;;;;;1.92;61.25;101220.47;5040993;28;45470;-81
2024/01/14 08:51:40;;;;;;;;;51.25;39.50;;;;;1.63;60.50;101150.31;5041993;28;45430;-80
2024/01/14 08:54:06;;;;;;;;;56.50;43.25;;;;;1.63;61.06;101166.03;5038300;28;45444;-76
2024/01/14 08:56:31;;;;;;;;;43.33;37.00;;;;;1.95;61.21;101208.97;5037539;28;45607;-78
2024/01/14 08:58:58;;;;;;;;;39.00;32.33;;;;;1.41;60.97;101116.47;5048916;28;45365;-78
2024/01/14 09:01:23;;;;;;;;;43.33;37.00;;;;;1.89;60.85;101197.03;5037991;28;46534;-80
2024/01/14 09:03:49;;;;;;;;;49.00;38.00;;;;;1.88;60.61;101197.94;5062454;28;45442;-78
2024/01/14 09:06:15;;;;;;;;;47.50;40.25;;;;;1.70;61.48;101163.03;5035817;28;45669;-80
2024/01/14 09:08:40;;;;;;;;;42.00;35.00;;;;;1.92;61.34;101196.88;5034767;28;45513;-79
2024/01/14 09:11:07;;;;;;;;;45.33;36.33;;;;;1.45;61.41;101100.53;5048484;28;45379;-79
2024/01/14 09:13:32;;;;;;;;;47.33;38.67;;;;;1.69;60.80;101132.50;5057693;28;45371;-79
2024/01/14 09:15:58;;;;;;;;;42.33;37.00;;;;;2.10;60.81;101188.06;5060468;28;45436;-77
2024/01/14 09:18:23;;;;;;;;;44.67;37.67;;;;;2.09;61.06;101186.38;5061984;28;46131;-80
2024/01/14 09:20:49;;;;;;;;;36.33;32.33;;;;;1.58;60.86;101094.66;5063275;28;45430;-79
2024/01/14 09:23:15;;;;;;;;;39.33;36.00;;;;;1.92;60.54;101140.97;5061411;28;45311;-78
2024/01/14 09:25:40;;;;;;;;;50.00;37.67;;;;;1.93;60.71;101151.38;5062724;28;45315;-77
2024/01/14 09:28:06;;;;;;;;;51.67;41.67;;;;;1.97;60.53;101146.81;5038563;28;47648;-78
2024/01/14 09:30:32;;;;;;;;;45.00;35.00;;;;;2.11;60.57;101171.41;5061021;28;45378;-79
2024/01/14 09:32:57;;;;;;;;;39.00;36.67;;;;;1.56;60.52;101075.53;5072712;28;45336;-82
2024/01/14 09:35:23;;;;;;;;;41.33;37.67;;;;;2.20;60.56;101177.06;5057708;28;45341;-79
2024/01/14 09:37:48;;;;;;;;;43.67;39.67;;;;;2.05;60.74;101150.75;5039073;28;45468;-79
2024/01/14 09:40:16;;;;;;;;;45.25;37.75;;;;;2.19;60.50;101164.91;5044203;28;45397;-80
2024/01/14 09:42:44;;;;;;;;;38.33;33.67;;;;;2.35;59.90;101181.53;5042771;28;45271;-78
2024/01/14 09:45:10;;;;;;;;;37.00;35.67;;;;;2.03;59.66;101120.28;5026748;28;45460;-79
2024/01/14 09:47:37;;;;;;;;;49.00;36.67;;;;;2.21;59.79;101147.31;5045212;28;45828;-79
2024/01/14 09:50:04;;;;;;;;;47.33;40.67;;;;;2.35;60.47;101173.66;5062313;28;45214;-80
2024/01/14 09:52:31;;;;;;;;;41.33;35.67;;;;;1.93;59.89;101101.53;5075651;28;45200;-76
2024/01/14 09:54:57;;;;;;;;;40.33;37.67;;;;;2.36;60.27;101175.34;5054293;28;44891;-78
2024/01/14 09:57:24;;;;;;;;;42.67;36.33;;;;;2.11;59.76;101124.19;5071096;28;46156;-80
2024/01/14 09:59:52;;;;;;;;;40.67;35.33;;;;;2.07;60.37;101120.03;5073172;28;45222;-77
2024/01/14 10:02:19;;;;;;;;;45.67;39.67;;;;;2.10;60.23;101125.13;5073296;28;45321;-77
2024/01/14 10:04:44;;;;;;;;;43.67;38.67;;;;;2.18;59.47;101121.22;5070589;28;45250;-80
2024/01/14 10:07:10;;;;;;;;;39.00;35.00;;;;;2.32;59.35;101124.81;5049399;28;48355;-78
2024/01/14 10:09:39;;;;;;;;;42.33;37.33;;;;;2.18;58.99;101095.84;5070528;28;45077;-80
2024/01/14 10:12:07;;;;;;;;;48.67;38.67;;;;;2.47;59.20;101133.66;5068496;28;45041;-78
2024/01/14 10:14:34;;;;;;;;;43.00;36.33;;;;;2.58;58.91;101162.78;5040632;28;45525;-76
2024/01/14 10:17:00;;;;;;;;;52.67;38.33;;;;;2.66;59.06;101152.72;5072772;28;45698;-78
2024/01/14 10:19:25;;;;;;;;;46.67;34.33;;;;;2.55;59.21;101131.44;5052227;28;45625;-78
2024/01/14 10:21:57;;;;;;;;;41.50;35.25;;;;;2.55;59.30;101134.06;5072011;28;45124;-79
2024/01/14 10:24:23;;;;;;;;;54.00;41.25;;;;;2.70;58.89;101145.53;5073027;28;45088;-79
2024/01/14 10:26:55;;;;;;;;;52.67;42.67;;;;;2.79;58.89;101146.78;5061760;28;46273;-80
2024/01/14 10:29:21;;;;;;;;;55.25;40.00;;;;;2.41;59.51;101066.63;5070199;28;45384;-79
2024/01/14 10:31:48;;;;;;;;;50.25;39.75;;;;;2.41;59.11;101044.78;5063071;28;45515;-77
2024/01/14 10:34:16;;;;;;;;;49.25;38.50;;;;;2.71;57.70;101084.22;5045516;28;45176;-79
2024/01/14 10:36:42;;;;;;;;;52.75;42.00;;;;;2.83;58.54;101090.56;5055572;28;46296;-80
2024/01/14 10:39:10;;;;;;;;;54.00;39.00;;;;;3.14;58.87;101139.56;5055014;28;45325;-80
2024/01/14 10:41:36;;;;;;;;;46.25;40.25;;;;;2.65;57.50;101034.69;5064866;28;45746;-80
2024/01/14 10:44:01;;;;;;;;;54.75;42.25;;;;;2.33;57.86;100981.38;5071034;28;45455;-78
2024/01/14 10:46:30;;;;;;;;;46.25;37.50;;;;;2.92;57.94;101071.66;5075130;28;45096;-76
2024/01/14 10:49:04;;;;;;;;;51.50;40.00;;;;;3.02;57.67;101091.22;5072262;28;45017;-78
2024/01/14 10:51:36;;;;;;;;;58.00;41.75;;;;;3.23;57.61;101123.31;5065487;28;45292;-78
2024/01/14 10:54:19;;;;;;;;;57.00;45.00;;;;;2.98;57.80;101073.94;5057672;28;45370;-77
2024/01/14 10:56:50;;;;;;;;;53.75;45.00;;;;;3.22;57.51;101109.31;5057327;28;45470;-78
2024/01/14 10:59:18;;;;;;;;;82.50;60.75;;;;;2.44;57.92;100969.34;5056949;28;45775;-79
2024/01/14 11:01:53;;;;;;;;;56.25;44.50;;;;;2.96;57.92;101065.28;5056807;28;45528;-78
2024/01/14 11:04:20;;;;;;;;;57.00;46.00;;;;;3.22;57.86;101096.19;5056792;28;45533;-78
2024/01/14 11:06:47;;;;;;;;;52.25;44.50;;;;;3.26;57.70;101099.47;5055030;28;45461;-78
2024/01/14 11:09:12;;;;;;;;;64.75;46.75;;;;;1.34;57.10;100743.97;5056818;28;45378;-79
2024/01/14 11:11:53;;;;;;;;;56.25;41.50;;;;;3.44;57.32;101090.53;5059822;28;45603;-79